Aviation Digital Data Service (ADDS)

Output produced by METARs form (1345 UTC 25 June 2019)
found at http://www.aviationweather.gov/metar/data/
 
METAR text: KMSY 251253Z 18006KT 6SM HZ FEW022 BKN160 BKN250 29/26 A3004 RMK AO2 SLP174 T02890261
Conditions at: KMSY (NEW ORLEANS/INTL, LA, US) observed 1253 UTC 25 June 2019
Temperature: 28.9°C (84°F)
Dewpoint: 26.1°C (79°F) [RH = 85%]
Pressure (altimeter): 30.04 inches Hg (1017.4 mb)
[Sea-level pressure: 1017.4 mb]
Winds: from the S (180 degrees) at 7 MPH (6 knots; 3.1 m/s)
Visibility: 6 miles (10 km)
Ceiling: 16000 feet AGL
Clouds: few clouds at 2200 feet AGL
broken clouds at 16000 feet AGL
broken clouds at 25000 feet AGL
Weather: HZ  (haze)

METAR text: KMSY 251153Z 17006KT 6SM HZ FEW022 BKN160 BKN250 28/26 A3003 RMK AO2 SLP171 70002 T02830256 10283 20250 51012
Conditions at: KMSY (NEW ORLEANS/INTL, LA, US) observed 1153 UTC 25 June 2019
Temperature: 28.3°C (83°F)
Dewpoint: 25.6°C (78°F) [RH = 85%]
Pressure (altimeter): 30.03 inches Hg (1017.0 mb)
[Sea-level pressure: 1017.1 mb]
Winds: from the S (170 degrees) at 7 MPH (6 knots; 3.1 m/s)
Visibility: 6 miles (10 km)
Ceiling: 16000 feet AGL
Clouds: few clouds at 2200 feet AGL
broken clouds at 16000 feet AGL
broken clouds at 25000 feet AGL
Weather: HZ  (haze)

METAR text: KMSY 251053Z 18004KT 8SM FEW020 BKN160 BKN250 28/25 A3002 RMK AO2 SLP168 T02780250
Conditions at: KMSY (NEW ORLEANS/INTL, LA, US) observed 1053 UTC 25 June 2019
Temperature: 27.8°C (82°F)
Dewpoint: 25.0°C (77°F) [RH = 85%]
Pressure (altimeter): 30.02 inches Hg (1016.7 mb)
[Sea-level pressure: 1016.8 mb]
Winds: from the S (180 degrees) at 5 MPH (4 knots; 2.1 m/s)
Visibility: 8 miles (13 km)
Ceiling: 16000 feet AGL
Clouds: few clouds at 2000 feet AGL
broken clouds at 16000 feet AGL
broken clouds at 25000 feet AGL
Weather: no significant weather observed at this time

METAR text: KMSY 250953Z 19004KT 8SM BKN250 27/25 A3001 RMK AO2 SLP164 T02720250
Conditions at: KMSY (NEW ORLEANS/INTL, LA, US) observed 0953 UTC 25 June 2019
Temperature: 27.2°C (81°F)
Dewpoint: 25.0°C (77°F) [RH = 88%]
Pressure (altimeter): 30.01 inches Hg (1016.3 mb)
[Sea-level pressure: 1016.4 mb]
Winds: from the S (190 degrees) at 5 MPH (4 knots; 2.1 m/s)
Visibility: 8 miles (13 km)
Ceiling: 25000 feet AGL
Clouds: broken clouds at 25000 feet AGL
Weather: no significant weather observed at this time

METAR text: KMSY 250853Z 17005KT 9SM BKN250 27/24 A2999 RMK AO2 SLP159 T02720244 50003
Conditions at: KMSY (NEW ORLEANS/INTL, LA, US) observed 0853 UTC 25 June 2019
Temperature: 27.2°C (81°F)
Dewpoint: 24.4°C (76°F) [RH = 85%]
Pressure (altimeter): 29.99 inches Hg (1015.7 mb)
[Sea-level pressure: 1015.9 mb]
Winds: from the S (170 degrees) at 6 MPH (5 knots; 2.6 m/s)
Visibility: 9 miles (14 km)
Ceiling: 25000 feet AGL
Clouds: broken clouds at 25000 feet AGL
Weather: no significant weather observed at this time

METAR text: KMSY 250753Z 16004KT 10SM BKN250 27/24 A2999 RMK AO2 SLP160 T02720239
Conditions at: KMSY (NEW ORLEANS/INTL, LA, US) observed 0753 UTC 25 June 2019
Temperature: 27.2°C (81°F)
Dewpoint: 23.9°C (75°F) [RH = 82%]
Pressure (altimeter): 29.99 inches Hg (1015.7 mb)
[Sea-level pressure: 1016.0 mb]
Winds: from the SSE (160 degrees) at 5 MPH (4 knots; 2.1 m/s)
Visibility: 10 or more miles (16+ km)
Ceiling: 25000 feet AGL
Clouds: broken clouds at 25000 feet AGL
Weather: no significant weather observed at this time

METAR text: KMSY 250653Z 00000KT 10SM SCT250 26/23 A3000 RMK AO2 SLP161 T02610228
Conditions at: KMSY (NEW ORLEANS/INTL, LA, US) observed 0653 UTC 25 June 2019
Temperature: 26.1°C (79°F)
Dewpoint: 22.8°C (73°F) [RH = 82%]
Pressure (altimeter): 30.00 inches Hg (1016.0 mb)
[Sea-level pressure: 1016.1 mb]
Winds: calm
Visibility: 10 or more miles (16+ km)
Ceiling: at least 12,000 feet AGL
Clouds: scattered clouds at 25000 feet AGL
Weather: no significant weather observed at this time

METAR text: KMSY 250553Z 00000KT 10SM SCT250 26/23 A2999 RMK AO2 SLP157 T02560228 10289 20244 402940239 53007
Conditions at: KMSY (NEW ORLEANS/INTL, LA, US) observed 0553 UTC 25 June 2019
Temperature: 25.6°C (78°F)
Dewpoint: 22.8°C (73°F) [RH = 85%]
Pressure (altimeter): 29.99 inches Hg (1015.7 mb)
[Sea-level pressure: 1015.7 mb]
Winds: calm
Visibility: 10 or more miles (16+ km)
Ceiling: at least 12,000 feet AGL
Clouds: scattered clouds at 25000 feet AGL
Weather: no significant weather observed at this time

METAR text: KMSY 250453Z 00000KT 10SM BKN250 26/23 A2997 RMK AO2 SLP151 T02610228
Conditions at: KMSY (NEW ORLEANS/INTL, LA, US) observed 0453 UTC 25 June 2019
Temperature: 26.1°C (79°F)
Dewpoint: 22.8°C (73°F) [RH = 82%]
Pressure (altimeter): 29.97 inches Hg (1015.0 mb)
[Sea-level pressure: 1015.1 mb]
Winds: calm
Visibility: 10 or more miles (16+ km)
Ceiling: 25000 feet AGL
Clouds: broken clouds at 25000 feet AGL
Weather: no significant weather observed at this time

METAR text: KMSY 250353Z 00000KT 10SM FEW120 BKN250 26/22 A2998 RMK AO2 SLP154 T02610222
Conditions at: KMSY (NEW ORLEANS/INTL, LA, US) observed 0353 UTC 25 June 2019
Temperature: 26.1°C (79°F)
Dewpoint: 22.2°C (72°F) [RH = 79%]
Pressure (altimeter): 29.98 inches Hg (1015.3 mb)
[Sea-level pressure: 1015.4 mb]
Winds: calm
Visibility: 10 or more miles (16+ km)
Ceiling: 25000 feet AGL
Clouds: few clouds at 12000 feet AGL
broken clouds at 25000 feet AGL
Weather: no significant weather observed at this time

METAR text: KMSY 250253Z 32003KT 10SM BKN120 BKN250 27/23 A2996 RMK AO2 SLP150 T02670228 51010
Conditions at: KMSY (NEW ORLEANS/INTL, LA, US) observed 0253 UTC 25 June 2019
Temperature: 26.7°C (80°F)
Dewpoint: 22.8°C (73°F) [RH = 79%]
Pressure (altimeter): 29.96 inches Hg (1014.6 mb)
[Sea-level pressure: 1015.0 mb]
Winds: from the NW (320 degrees) at 3 MPH (3 knots; 1.5 m/s)
Visibility: 10 or more miles (16+ km)
Ceiling: 12000 feet AGL
Clouds: broken clouds at 12000 feet AGL
broken clouds at 25000 feet AGL
Weather: no significant weather observed at this time

METAR text: KMSY 250153Z 00000KT 10SM BKN120 BKN250 27/22 A2995 RMK AO2 SLP145 T02720222
Conditions at: KMSY (NEW ORLEANS/INTL, LA, US) observed 0153 UTC 25 June 2019
Temperature: 27.2°C (81°F)
Dewpoint: 22.2°C (72°F) [RH = 74%]
Pressure (altimeter): 29.95 inches Hg (1014.3 mb)
[Sea-level pressure: 1014.5 mb]
Winds: calm
Visibility: 10 or more miles (16+ km)
Ceiling: 12000 feet AGL
Clouds: broken clouds at 12000 feet AGL
broken clouds at 25000 feet AGL
Weather: no significant weather observed at this time

METAR text: KMSY 250053Z 00000KT 10SM BKN150 BKN250 28/22 A2996 RMK AO2 SLP147 T02780222
Conditions at: KMSY (NEW ORLEANS/INTL, LA, US) observed 0053 UTC 25 June 2019
Temperature: 27.8°C (82°F)
Dewpoint: 22.2°C (72°F) [RH = 72%]
Pressure (altimeter): 29.96 inches Hg (1014.6 mb)
[Sea-level pressure: 1014.7 mb]
Winds: calm
Visibility: 10 or more miles (16+ km)
Ceiling: 15000 feet AGL
Clouds: broken clouds at 15000 feet AGL
broken clouds at 25000 feet AGL
Weather: no significant weather observed at this time

METAR text: KMSY 242353Z 15005KT 10SM SCT150 BKN250 28/22 A2993 RMK AO2 SLP139 T02830217 10289 20278 56018
Conditions at: KMSY (NEW ORLEANS/INTL, LA, US) observed 2353 UTC 24 June 2019
Temperature: 28.3°C (83°F)
Dewpoint: 21.7°C (71°F) [RH = 67%]
Pressure (altimeter): 29.93 inches Hg (1013.6 mb)
[Sea-level pressure: 1013.9 mb]
Winds: from the SSE (150 degrees) at 6 MPH (5 knots; 2.6 m/s)
Visibility: 10 or more miles (16+ km)
Ceiling: 25000 feet AGL
Clouds: scattered clouds at 15000 feet AGL
broken clouds at 25000 feet AGL
Weather: no significant weather observed at this time

METAR text: KMSY 242253Z 16005KT 10SM SCT060 OVC150 29/22 A2995 RMK AO2 SLP143 T02890217
Conditions at: KMSY (NEW ORLEANS/INTL, LA, US) observed 2253 UTC 24 June 2019
Temperature: 28.9°C (84°F)
Dewpoint: 21.7°C (71°F) [RH = 65%]
Pressure (altimeter): 29.95 inches Hg (1014.3 mb)
[Sea-level pressure: 1014.3 mb]
Winds: from the SSE (160 degrees) at 6 MPH (5 knots; 2.6 m/s)
Visibility: 10 or more miles (16+ km)
Ceiling: 15000 feet AGL
Clouds: scattered clouds at 6000 feet AGL
overcast cloud deck at 15000 feet AGL
Weather: no significant weather observed at this time

METAR text: KMSY 242153Z 16006KT 10SM SCT060 OVC200 28/21 A2996 RMK AO2 SLP149 T02830206
Conditions at: KMSY (NEW ORLEANS/INTL, LA, US) observed 2153 UTC 24 June 2019
Temperature: 28.3°C (83°F)
Dewpoint: 20.6°C (69°F) [RH = 63%]
Pressure (altimeter): 29.96 inches Hg (1014.6 mb)
[Sea-level pressure: 1014.9 mb]
Winds: from the SSE (160 degrees) at 7 MPH (6 knots; 3.1 m/s)
Visibility: 10 or more miles (16+ km)
Ceiling: 20000 feet AGL
Clouds: scattered clouds at 6000 feet AGL
overcast cloud deck at 20000 feet AGL
Weather: no significant weather observed at this time

METAR text: KMSY 242053Z 21005KT 10SM FEW030 OVC200 28/21 A2999 RMK AO2 SLP157 T02830211 58014
Conditions at: KMSY (NEW ORLEANS/INTL, LA, US) observed 2053 UTC 24 June 2019
Temperature: 28.3°C (83°F)
Dewpoint: 21.1°C (70°F) [RH = 65%]
Pressure (altimeter): 29.99 inches Hg (1015.7 mb)
[Sea-level pressure: 1015.7 mb]
Winds: from the SSW (210 degrees) at 6 MPH (5 knots; 2.6 m/s)
Visibility: 10 or more miles (16+ km)
Ceiling: 20000 feet AGL
Clouds: few clouds at 3000 feet AGL
overcast cloud deck at 20000 feet AGL
Weather: no significant weather observed at this time

METAR text: KMSY 241953Z 24003KT 10SM FEW025 OVC200 28/20 A3000 RMK AO2 SLP163 T02830200
Conditions at: KMSY (NEW ORLEANS/INTL, LA, US) observed 1953 UTC 24 June 2019
Temperature: 28.3°C (83°F)
Dewpoint: 20.0°C (68°F) [RH = 61%]
Pressure (altimeter): 30.00 inches Hg (1016.0 mb)
[Sea-level pressure: 1016.3 mb]
Winds: from the WSW (240 degrees) at 3 MPH (3 knots; 1.5 m/s)
Visibility: 10 or more miles (16+ km)
Ceiling: 20000 feet AGL
Clouds: few clouds at 2500 feet AGL
overcast cloud deck at 20000 feet AGL
Weather: no significant weather observed at this time

METAR text: KMSY 241853Z 31006KT 10SM FEW025 FEW060 OVC200 28/19 A3001 RMK AO2 SLP165 T02830189
Conditions at: KMSY (NEW ORLEANS/INTL, LA, US) observed 1853 UTC 24 June 2019
Temperature: 28.3°C (83°F)
Dewpoint: 18.9°C (66°F) [RH = 57%]
Pressure (altimeter): 30.01 inches Hg (1016.3 mb)
[Sea-level pressure: 1016.5 mb]
Winds: from the NW (310 degrees) at 7 MPH (6 knots; 3.1 m/s)
Visibility: 10 or more miles (16+ km)
Ceiling: 20000 feet AGL
Clouds: few clouds at 2500 feet AGL
few clouds at 6000 feet AGL
overcast cloud deck at 20000 feet AGL
Weather: no significant weather observed at this time

METAR text: KMSY 241753Z 27004KT 10SM FEW025 FEW060 OVC200 28/19 A3003 RMK AO2 SLP171 60002 T02780194 10283 20239 50002
Conditions at: KMSY (NEW ORLEANS/INTL, LA, US) observed 1753 UTC 24 June 2019
Temperature: 27.8°C (82°F)
Dewpoint: 19.4°C (67°F) [RH = 60%]
Pressure (altimeter): 30.03 inches Hg (1017.0 mb)
[Sea-level pressure: 1017.1 mb]
Winds: from the W (270 degrees) at 5 MPH (4 knots; 2.1 m/s)
Visibility: 10 or more miles (16+ km)
Ceiling: 20000 feet AGL
Clouds: few clouds at 2500 feet AGL
few clouds at 6000 feet AGL
overcast cloud deck at 20000 feet AGL
Weather: no significant weather observed at this time

METAR text: KMSY 241653Z 32005KT 10SM FEW023 SCT060 OVC200 28/19 A3003 RMK AO2 RAB06E28 SLP173 P0000 T02830189
Conditions at: KMSY (NEW ORLEANS/INTL, LA, US) observed 1653 UTC 24 June 2019
Temperature: 28.3°C (83°F)
Dewpoint: 18.9°C (66°F) [RH = 57%]
Pressure (altimeter): 30.03 inches Hg (1017.0 mb)
[Sea-level pressure: 1017.3 mb]
Winds: from the NW (320 degrees) at 6 MPH (5 knots; 2.6 m/s)
Visibility: 10 or more miles (16+ km)
Ceiling: 20000 feet AGL
Clouds: few clouds at 2300 feet AGL
scattered clouds at 6000 feet AGL
overcast cloud deck at 20000 feet AGL
Weather: no significant weather observed at this time

METAR text: KMSY 241553Z 27005KT 10SM SCT060 BKN080 OVC130 27/21 A3003 RMK AO2 SLP172 T02670206
Conditions at: KMSY (NEW ORLEANS/INTL, LA, US) observed 1553 UTC 24 June 2019
Temperature: 26.7°C (80°F)
Dewpoint: 20.6°C (69°F) [RH = 69%]
Pressure (altimeter): 30.03 inches Hg (1017.0 mb)
[Sea-level pressure: 1017.2 mb]
Winds: from the W (270 degrees) at 6 MPH (5 knots; 2.6 m/s)
Visibility: 10 or more miles (16+ km)
Ceiling: 8000 feet AGL
Clouds: scattered clouds at 6000 feet AGL
broken clouds at 8000 feet AGL
overcast cloud deck at 13000 feet AGL
Weather: no significant weather observed at this time

METAR text: KMSY 241453Z 05004KT 10SM FEW024 SCT100 BKN120 OVC200 26/21 A3002 RMK AO2 RAB08E39 SLP168 CB DSNT NW-N AND E P0001 60002 T02560206 51003
Conditions at: KMSY (NEW ORLEANS/INTL, LA, US) observed 1453 UTC 24 June 2019
Temperature: 25.6°C (78°F)
Dewpoint: 20.6°C (69°F) [RH = 74%]
Pressure (altimeter): 30.02 inches Hg (1016.7 mb)
[Sea-level pressure: 1016.8 mb]
Winds: from the NE (50 degrees) at 5 MPH (4 knots; 2.1 m/s)
Visibility: 10 or more miles (16+ km)
Ceiling: 12000 feet AGL
Clouds: few clouds at 2400 feet AGL
scattered clouds at 10000 feet AGL
broken clouds at 12000 feet AGL
overcast cloud deck at 20000 feet AGL
Weather: no significant weather observed at this time

METAR text: KMSY 241353Z 29003KT 10SM FEW030CB FEW060 BKN130 OVC200 25/20 A3002 RMK AO2 LTG DSNT E AND SW RAE19 SLP167 CB SE-S MOV S P0001 T02500200
Conditions at: KMSY (NEW ORLEANS/INTL, LA, US) observed 1353 UTC 24 June 2019
Temperature: 25.0°C (77°F)
Dewpoint: 20.0°C (68°F) [RH = 74%]
Pressure (altimeter): 30.02 inches Hg (1016.7 mb)
[Sea-level pressure: 1016.7 mb]
Winds: from the WNW (290 degrees) at 3 MPH (3 knots; 1.5 m/s)
Visibility: 10 or more miles (16+ km)
Ceiling: 13000 feet AGL
Clouds: few clouds at 3000 feet AGL
few clouds at 6000 feet AGL
broken clouds at 13000 feet AGL
overcast cloud deck at 20000 feet AGL
Weather: no significant weather observed at this time

METAR text: KMSY 241310Z 34010KT 10SM -RA FEW034 BKN049 OVC060 24/20 A3003 RMK AO2 LTG DSNT SW P0001 T02390200
Conditions at: KMSY (NEW ORLEANS/INTL, LA, US) observed 1310 UTC 24 June 2019
Temperature: 23.9°C (75°F)
Dewpoint: 20.0°C (68°F) [RH = 79%]
Pressure (altimeter): 30.03 inches Hg (1017.0 mb)
Winds: from the NNW (340 degrees) at 12 MPH (10 knots; 5.1 m/s)
Visibility: 10 or more miles (16+ km)
Ceiling: 4900 feet AGL
Clouds: few clouds at 3400 feet AGL
broken clouds at 4900 feet AGL
overcast cloud deck at 6000 feet AGL
Weather: -RA  (light rain)

METAR text: KMSY 241253Z 32007G14KT 9SM VCTS -RA SCT024 BKN030 OVC035 25/19 A3004 RMK AO2 LTG DSNT SE AND W RAB45 PRESRR SLP174 P0000 T02500189
Conditions at: KMSY (NEW ORLEANS/INTL, LA, US) observed 1253 UTC 24 June 2019
Temperature: 25.0°C (77°F)
Dewpoint: 18.9°C (66°F) [RH = 69%]
Pressure (altimeter): 30.04 inches Hg (1017.4 mb)
[Sea-level pressure: 1017.4 mb]
Winds: from the NW (320 degrees) at 8 MPH (7 knots; 3.6 m/s)
gusting to 16 MPH (14 knots; 7.2 m/s)
Visibility: 9 miles (14 km)
Ceiling: 3000 feet AGL
Clouds: scattered clouds at 2400 feet AGL
broken clouds at 3000 feet AGL
overcast cloud deck at 3500 feet AGL
Weather: VCTS -RA  (thunderstorm in vicinity, light rain)

METAR text: KMSY 241249Z 34008KT 10SM VCTS -RA SCT024 BKN030 OVC035 25/19 A3001 RMK AO2 LTG DSNT SE AND W RAB45 P0000
Conditions at: KMSY (NEW ORLEANS/INTL, LA, US) observed 1249 UTC 24 June 2019
Temperature: 25.0°C (77°F)
Dewpoint: 19.0°C (66°F) [RH = 69%]
Pressure (altimeter): 30.01 inches Hg (1016.3 mb)
Winds: from the NNW (340 degrees) at 9 MPH (8 knots; 4.1 m/s)
Visibility: 10 or more miles (16+ km)
Ceiling: 3000 feet AGL
Clouds: scattered clouds at 2400 feet AGL
broken clouds at 3000 feet AGL
overcast cloud deck at 3500 feet AGL
Weather: VCTS -RA  (thunderstorm in vicinity, light rain)

METAR text: KMSY 241218Z 34010G24KT 10SM BKN020 OVC035 25/19 A3001 RMK AO2 LTG DSNT W T02500189
Conditions at: KMSY (NEW ORLEANS/INTL, LA, US) observed 1218 UTC 24 June 2019
Temperature: 25.0°C (77°F)
Dewpoint: 18.9°C (66°F) [RH = 69%]
Pressure (altimeter): 30.01 inches Hg (1016.3 mb)
Winds: from the NNW (340 degrees) at 12 MPH (10 knots; 5.1 m/s)
gusting to 28 MPH (24 knots; 12.3 m/s)
Visibility: 10 or more miles (16+ km)
Ceiling: 2000 feet AGL
Clouds: broken clouds at 2000 feet AGL
overcast cloud deck at 3500 feet AGL
Weather: no significant weather observed at this time

METAR text: KMSY 241153Z 26006KT 7SM FEW020TCU BKN040 OVC130 28/24 A2999 RMK AO2 SLP158 TCU NE T02830244 10294 20278 53025
Conditions at: KMSY (NEW ORLEANS/INTL, LA, US) observed 1153 UTC 24 June 2019
Temperature: 28.3°C (83°F)
Dewpoint: 24.4°C (76°F) [RH = 79%]
Pressure (altimeter): 29.99 inches Hg (1015.7 mb)
[Sea-level pressure: 1015.8 mb]
Winds: from the W (260 degrees) at 7 MPH (6 knots; 3.1 m/s)
Visibility: 7 miles (11 km)
Ceiling: 4000 feet AGL
Clouds: few clouds at 2000 feet AGL
broken clouds at 4000 feet AGL
overcast cloud deck at 13000 feet AGL
Weather: no significant weather observed at this time

METAR text: KMSY 241053Z 24008KT 8SM SCT033 BKN150 BKN250 28/24 A2995 RMK AO2 PRESRR SLP146 T02830239
Conditions at: KMSY (NEW ORLEANS/INTL, LA, US) observed 1053 UTC 24 June 2019
Temperature: 28.3°C (83°F)
Dewpoint: 23.9°C (75°F) [RH = 77%]
Pressure (altimeter): 29.95 inches Hg (1014.3 mb)
[Sea-level pressure: 1014.6 mb]
Winds: from the WSW (240 degrees) at 9 MPH (8 knots; 4.1 m/s)
Visibility: 8 miles (13 km)
Ceiling: 15000 feet AGL
Clouds: scattered clouds at 3300 feet AGL
broken clouds at 15000 feet AGL
broken clouds at 25000 feet AGL
Weather: no significant weather observed at this time

METAR text: KMSY 240953Z 19008KT 8SM SCT033 SCT140 BKN250 28/24 A2991 RMK AO2 SLP132 T02830244
Conditions at: KMSY (NEW ORLEANS/INTL, LA, US) observed 0953 UTC 24 June 2019
Temperature: 28.3°C (83°F)
Dewpoint: 24.4°C (76°F) [RH = 79%]
Pressure (altimeter): 29.91 inches Hg (1013.0 mb)
[Sea-level pressure: 1013.2 mb]
Winds: from the S (190 degrees) at 9 MPH (8 knots; 4.1 m/s)
Visibility: 8 miles (13 km)
Ceiling: 25000 feet AGL
Clouds: scattered clouds at 3300 feet AGL
scattered clouds at 14000 feet AGL
broken clouds at 25000 feet AGL
Weather: no significant weather observed at this time

METAR text: KMSY 240853Z 19009KT 8SM FEW025 SCT036 BKN250 28/25 A2992 RMK AO2 SLP133 T02830250 56007
Conditions at: KMSY (NEW ORLEANS/INTL, LA, US) observed 0853 UTC 24 June 2019
Temperature: 28.3°C (83°F)
Dewpoint: 25.0°C (77°F) [RH = 82%]
Pressure (altimeter): 29.92 inches Hg (1013.3 mb)
[Sea-level pressure: 1013.3 mb]
Winds: from the S (190 degrees) at 10 MPH (9 knots; 4.6 m/s)
Visibility: 8 miles (13 km)
Ceiling: 25000 feet AGL
Clouds: few clouds at 2500 feet AGL
scattered clouds at 3600 feet AGL
broken clouds at 25000 feet AGL
Weather: no significant weather observed at this time

METAR text: KMSY 240753Z 18008KT 8SM FEW022 SCT030 BKN250 29/25 A2992 RMK AO2 SLP134 T02890250
Conditions at: KMSY (NEW ORLEANS/INTL, LA, US) observed 0753 UTC 24 June 2019
Temperature: 28.9°C (84°F)
Dewpoint: 25.0°C (77°F) [RH = 80%]
Pressure (altimeter): 29.92 inches Hg (1013.3 mb)
[Sea-level pressure: 1013.4 mb]
Winds: from the S (180 degrees) at 9 MPH (8 knots; 4.1 m/s)
Visibility: 8 miles (13 km)
Ceiling: 25000 feet AGL
Clouds: few clouds at 2200 feet AGL
scattered clouds at 3000 feet AGL
broken clouds at 25000 feet AGL
Weather: no significant weather observed at this time

METAR text: KMSY 240653Z 18009KT 8SM FEW017 SCT022 BKN250 29/26 A2993 RMK AO2 SLP136 T02890256
Conditions at: KMSY (NEW ORLEANS/INTL, LA, US) observed 0653 UTC 24 June 2019
Temperature: 28.9°C (84°F)
Dewpoint: 25.6°C (78°F) [RH = 82%]
Pressure (altimeter): 29.93 inches Hg (1013.6 mb)
[Sea-level pressure: 1013.6 mb]
Winds: from the S (180 degrees) at 10 MPH (9 knots; 4.6 m/s)
Visibility: 8 miles (13 km)
Ceiling: 25000 feet AGL
Clouds: few clouds at 1700 feet AGL
scattered clouds at 2200 feet AGL
broken clouds at 25000 feet AGL
Weather: no significant weather observed at this time

METAR text: KMSY 240553Z 18008KT 9SM SCT035 BKN250 29/25 A2994 RMK AO2 SLP140 T02890250 10317 20289 403390283 58001
Conditions at: KMSY (NEW ORLEANS/INTL, LA, US) observed 0553 UTC 24 June 2019
Temperature: 28.9°C (84°F)
Dewpoint: 25.0°C (77°F) [RH = 80%]
Pressure (altimeter): 29.94 inches Hg (1014.0 mb)
[Sea-level pressure: 1014.0 mb]
Winds: from the S (180 degrees) at 9 MPH (8 knots; 4.1 m/s)
Visibility: 9 miles (14 km)
Ceiling: 25000 feet AGL
Clouds: scattered clouds at 3500 feet AGL
broken clouds at 25000 feet AGL
Weather: no significant weather observed at this time

METAR text: KMSY 240453Z 18009KT 10SM FEW042 BKN250 29/25 A2995 RMK AO2 SLP143 T02890250
Conditions at: KMSY (NEW ORLEANS/INTL, LA, US) observed 0453 UTC 24 June 2019
Temperature: 28.9°C (84°F)
Dewpoint: 25.0°C (77°F) [RH = 80%]
Pressure (altimeter): 29.95 inches Hg (1014.3 mb)
[Sea-level pressure: 1014.3 mb]
Winds: from the S (180 degrees) at 10 MPH (9 knots; 4.6 m/s)
Visibility: 10 or more miles (16+ km)
Ceiling: 25000 feet AGL
Clouds: few clouds at 4200 feet AGL
broken clouds at 25000 feet AGL
Weather: no significant weather observed at this time

METAR text: KMSY 240353Z 18008KT 10SM FEW035 BKN250 29/25 A2995 RMK AO2 SLP146 T02940250
Conditions at: KMSY (NEW ORLEANS/INTL, LA, US) observed 0353 UTC 24 June 2019
Temperature: 29.4°C (85°F)
Dewpoint: 25.0°C (77°F) [RH = 77%]
Pressure (altimeter): 29.95 inches Hg (1014.3 mb)
[Sea-level pressure: 1014.6 mb]
Winds: from the S (180 degrees) at 9 MPH (8 knots; 4.1 m/s)
Visibility: 10 or more miles (16+ km)
Ceiling: 25000 feet AGL
Clouds: few clouds at 3500 feet AGL
broken clouds at 25000 feet AGL
Weather: no significant weather observed at this time

METAR text: KMSY 240253Z 18009KT 10SM FEW020 SCT035 SCT270 29/25 A2994 RMK AO2 SLP142 T02940250 55001
Conditions at: KMSY (NEW ORLEANS/INTL, LA, US) observed 0253 UTC 24 June 2019
Temperature: 29.4°C (85°F)
Dewpoint: 25.0°C (77°F) [RH = 77%]
Pressure (altimeter): 29.94 inches Hg (1014.0 mb)
[Sea-level pressure: 1014.2 mb]
Winds: from the S (180 degrees) at 10 MPH (9 knots; 4.6 m/s)
Visibility: 10 or more miles (16+ km)
Ceiling: at least 12,000 feet AGL
Clouds: few clouds at 2000 feet AGL
scattered clouds at 3500 feet AGL
scattered clouds at 27000 feet AGL
Weather: no significant weather observed at this time

METAR text: KMSY 240153Z 19008KT 10SM FEW020 BKN270 29/24 A2994 RMK AO2 SLP140 T02940244
Conditions at: KMSY (NEW ORLEANS/INTL, LA, US) observed 0153 UTC 24 June 2019
Temperature: 29.4°C (85°F)
Dewpoint: 24.4°C (76°F) [RH = 75%]
Pressure (altimeter): 29.94 inches Hg (1014.0 mb)
[Sea-level pressure: 1014.0 mb]
Winds: from the S (190 degrees) at 9 MPH (8 knots; 4.1 m/s)
Visibility: 10 or more miles (16+ km)
Ceiling: 27000 feet AGL
Clouds: few clouds at 2000 feet AGL
broken clouds at 27000 feet AGL
Weather: no significant weather observed at this time

Forecast for: KMSY (NEW ORLEANS/INTL, LA, US)
Text: KMSY 251120Z 2512/2618 18004KT P6SM FEW020 BKN160 BKN250
Forecast period: 1200 UTC 25 June 2019 to 1800 UTC 26 June 2019
Forecast type: FROM: standard forecast or significant change
Winds: from the S (180 degrees) at 5 MPH (4 knots; 2.1 m/s)
Visibility: 6 or more miles 10+ km)
Ceiling: 16000 feet AGL
Clouds: few clouds at 2000 feet AGL
broken clouds at 16000 feet AGL
broken clouds at 25000 feet AGL
Weather: no significant weather forecast for this period